Aérodrome :
LOGIN :

S'inscrire | Disclaimer

   EN    FR    IT 

 










Légende :    VFR   VFR Marginal   IFR   IFR Intensif   IFR Très Intensif
Visi : 
Plafond : 
>= 8 km
>= 3000ft
5 à 8 km
1000 à 3000 ft
1500m à 5 km
500 à 1000 ft
800 à 1500m
200 à 500 ft
< 800m
< 200 ft
Symboles :   Orages  Brouillard  Fortes neiges  Fortes précipitations  Vent > 20 kt
SIGMETs :   Divers  Orages  Givrage  Turbulence  Onde Orograph.  Cendres Volcan.







- Altitude de l'aérodrome : 464 ft
- Code IATA : EVX
- Voir les cartes d'approche


LFOE - Evreux

DERNIER METAR :
  • 251400Z AUTO 01007KT 340V060 9999 2800 NSC 10/M03 Q1012

METARs EXPIRÉS :
  • 251330Z AUTO 03005KT 340V060 CAVOK 10/M03 Q1012
  • 251300Z AUTO 02008KT 330V050 CAVOK 10/M03 Q1012
  • 251230Z AUTO 03007KT 350V080 CAVOK 10/M02 Q1012
  • 251200Z AUTO 02007KT 340V060 9999 FEW046 BKN170 BKN190 09/M03 Q1012
  • 251130Z AUTO 03006KT 350V070 9999 BKN046 BKN170 09/M02 Q1013

TAF TAF LFOE
Valide du 25 à 09h jusqu'au 26 à 09h UTC


250800Z 2509/2609 35010KT 9999 SCT030
TEMPO 2606/2609 5000 SHRA BKN025TCU
Pas de NOTAMs connus pour ce terrain.



MET'MAP, la Météo Aéronautique d'un coup d'oeil ! - Copyright ORBIFLY Décembre 2007 - Disclaimer

ORBIFLY MET'MAP TEAM :

Programmation & Développement : Alexandra Zaïnal
Conception & Développement : Baudouin d'Aumeries
Co-Programmation & Développement : Marc-Olivier Méhu
Soutien technique & logistique : Manuel Goepfert

Contact : metmap@orbifly.com




SOURCES & CREDITS :

   NOAA